XS82 weather

Del Rio Heliport
San Antonio, Texas, United States

Public forecast

Using degrees Fahrenheit for public forecast. Weather courtesy of forecast.io.

METAR (pilot weather report)

Closest report is Stinson Municipal Airport, 5.2 nm (9.6 km) S. Retrieved 2019/07/23 05:53 UTC (11 minutes ago):

KSSF 230553Z AUTO 00000KT 10SM CLR 26/19 A3001 RMK AO2 SLP148 T02560194 10322 20256 51013

TAF (pilot weather forecast)

Closest forecast is Stinson Municipal Airport, 5.2 nm (9.6 km) S. Retrieved 2019/07/23 06:34 UTC (0 seconds ago):

TAF KSSF 230532Z 2306/2406 VRB02KT P6SM SCT060 FM230900 36006KT P6SM VCSH BKN035 FM231500 02011KT P6SM VCSH BKN060 FM231800 03011KT P6SM SCT060 FM240200 04004KT P6SM SKC